BXS weather

Borrego Valley Airport
Borrego Springs, California, United States

Public forecast

Using degrees Fahrenheit for public forecast. Weather courtesy of forecast.io.

Closest aviation weather report (METAR) to Borrego Valley Airport

Closest report is Jacqueline Cochran Regional Airport, 23.5 nm (43.5 km) NNE. Retrieved 2020/02/23 03:52 UTC (50 minutes ago):

KTRM 230352Z AUTO 35013KT 10SM FEW110 16/04 A2999 RMK AO2 SLP155 T01610044

Closest aviation forecast (TAF) to Borrego Valley Airport

Closest forecast is Jacqueline Cochran Regional Airport, 23.5 nm (43.5 km) NNE. Retrieved 2020-02-23 00:22 UTC (4 hours ago):

TAF KTRM 222320Z 2300/2324 33017G25KT P6SM OVC100 FM231100 32005KT P6SM FEW250